sensor_id;sensor_type;location;lat;lon;timestamp;temperature;humidity
56103;DHT22;41970;48.774;9.280;2023-11-18T00:00:19;8.10;99.90
56103;DHT22;41970;48.774;9.280;2023-11-18T00:02:44;8.10;99.90
56103;DHT22;41970;48.774;9.280;2023-11-18T00:05:11;8.20;99.90
56103;DHT22;41970;48.774;9.280;2023-11-18T00:07:38;8.10;99.90
56103;DHT22;41970;48.774;9.280;2023-11-18T00:10:04;8.00;99.90
56103;DHT22;41970;48.774;9.280;2023-11-18T00:12:31;8.10;99.90
56103;DHT22;41970;48.774;9.280;2023-11-18T00:14:56;8.10;99.90
56103;DHT22;41970;48.774;9.280;2023-11-18T00:17:22;8.20;99.90
56103;DHT22;41970;48.774;9.280;2023-11-18T00:19:48;8.10;99.90
56103;DHT22;41970;48.774;9.280;2023-11-18T00:22:14;8.00;99.90
56103;DHT22;41970;48.774;9.280;2023-11-18T00:24:39;7.90;99.90
56103;DHT22;41970;48.774;9.280;2023-11-18T00:27:05;7.80;99.90
56103;DHT22;41970;48.774;9.280;2023-11-18T00:29:34;7.70;99.90
56103;DHT22;41970;48.774;9.280;2023-11-18T00:32:01;7.80;99.90
56103;DHT22;41970;48.774;9.280;2023-11-18T00:34:28;7.90;99.90
56103;DHT22;41970;48.774;9.280;2023-11-18T00:36:55;7.70;99.90
56103;DHT22;41970;48.774;9.280;2023-11-18T00:39:23;7.60;99.90
56103;DHT22;41970;48.774;9.280;2023-11-18T00:41:49;7.60;99.90
56103;DHT22;41970;48.774;9.280;2023-11-18T00:44:15;7.70;99.90
56103;DHT22;41970;48.774;9.280;2023-11-18T00:46:40;7.70;99.90
56103;DHT22;41970;48.774;9.280;2023-11-18T00:49:07;7.70;99.90
56103;DHT22;41970;48.774;9.280;2023-11-18T00:51:32;7.70;99.90
56103;DHT22;41970;48.774;9.280;2023-11-18T00:53:58;7.80;99.90
56103;DHT22;41970;48.774;9.280;2023-11-18T00:56:27;7.80;99.90
56103;DHT22;41970;48.774;9.280;2023-11-18T00:58:54;7.90;99.90
56103;DHT22;41970;48.774;9.280;2023-11-18T01:01:20;7.90;99.90
56103;DHT22;41970;48.774;9.280;2023-11-18T01:03:47;7.90;99.90
56103;DHT22;41970;48.774;9.280;2023-11-18T01:06:13;7.80;99.90
56103;DHT22;41970;48.774;9.280;2023-11-18T01:08:44;7.70;99.90
56103;DHT22;41970;48.774;9.280;2023-11-18T01:11:10;7.70;99.90
56103;DHT22;41970;48.774;9.280;2023-11-18T01:13:36;7.80;99.90
56103;DHT22;41970;48.774;9.280;2023-11-18T01:16:01;7.60;99.90
56103;DHT22;41970;48.774;9.280;2023-11-18T01:18:27;7.60;99.90
56103;DHT22;41970;48.774;9.280;2023-11-18T01:20:53;7.60;99.90
56103;DHT22;41970;48.774;9.280;2023-11-18T01:23:19;7.60;99.90
56103;DHT22;41970;48.774;9.280;2023-11-18T01:25:45;7.70;99.90
56103;DHT22;41970;48.774;9.280;2023-11-18T01:28:11;7.70;99.90
56103;DHT22;41970;48.774;9.280;2023-11-18T01:30:36;7.80;99.90
56103;DHT22;41970;48.774;9.280;2023-11-18T01:33:02;7.80;99.90
56103;DHT22;41970;48.774;9.280;2023-11-18T01:35:29;7.90;99.90
56103;DHT22;41970;48.774;9.280;2023-11-18T01:37:56;8.00;99.90
56103;DHT22;41970;48.774;9.280;2023-11-18T01:40:23;8.00;99.90
56103;DHT22;41970;48.774;9.280;2023-11-18T01:42:49;8.00;99.90
56103;DHT22;41970;48.774;9.280;2023-11-18T01:45:15;8.10;99.90
56103;DHT22;41970;48.774;9.280;2023-11-18T01:47:43;8.10;99.90
56103;DHT22;41970;48.774;9.280;2023-11-18T01:50:11;8.00;99.90
56103;DHT22;41970;48.774;9.280;2023-11-18T01:52:38;8.00;99.90
56103;DHT22;41970;48.774;9.280;2023-11-18T01:55:05;8.10;99.90
56103;DHT22;41970;48.774;9.280;2023-11-18T01:57:34;8.10;99.90
56103;DHT22;41970;48.774;9.280;2023-11-18T02:00:01;8.20;99.90
56103;DHT22;41970;48.774;9.280;2023-11-18T02:02:32;8.10;99.90
56103;DHT22;41970;48.774;9.280;2023-11-18T02:04:59;8.10;99.90
56103;DHT22;41970;48.774;9.280;2023-11-18T02:07:28;8.20;99.90
56103;DHT22;41970;48.774;9.280;2023-11-18T02:09:54;8.20;99.90
56103;DHT22;41970;48.774;9.280;2023-11-18T02:12:31;8.20;99.90
56103;DHT22;41970;48.774;9.280;2023-11-18T02:15:01;8.30;99.90
56103;DHT22;41970;48.774;9.280;2023-11-18T02:17:29;8.30;99.90
56103;DHT22;41970;48.774;9.280;2023-11-18T02:19:57;8.30;99.90
56103;DHT22;41970;48.774;9.280;2023-11-18T02:22:24;8.30;99.90
56103;DHT22;41970;48.774;9.280;2023-11-18T02:24:50;8.30;99.90
56103;DHT22;41970;48.774;9.280;2023-11-18T02:27:16;8.40;99.90
56103;DHT22;41970;48.774;9.280;2023-11-18T02:29:45;8.40;99.90
56103;DHT22;41970;48.774;9.280;2023-11-18T02:32:34;8.40;99.90
56103;DHT22;41970;48.774;9.280;2023-11-18T02:35:24;8.30;99.90
56103;DHT22;41970;48.774;9.280;2023-11-18T02:37:54;8.10;99.90
56103;DHT22;41970;48.774;9.280;2023-11-18T02:40:28;8.20;99.90
56103;DHT22;41970;48.774;9.280;2023-11-18T02:42:57;8.10;99.90
56103;DHT22;41970;48.774;9.280;2023-11-18T02:45:24;8.10;99.90
56103;DHT22;41970;48.774;9.280;2023-11-18T02:47:51;8.20;99.90
56103;DHT22;41970;48.774;9.280;2023-11-18T02:50:17;8.10;99.90
56103;DHT22;41970;48.774;9.280;2023-11-18T02:52:44;8.10;99.90
56103;DHT22;41970;48.774;9.280;2023-11-18T02:55:10;8.10;99.90
56103;DHT22;41970;48.774;9.280;2023-11-18T02:57:37;8.20;99.90
56103;DHT22;41970;48.774;9.280;2023-11-18T03:00:06;8.20;99.90
56103;DHT22;41970;48.774;9.280;2023-11-18T03:02:43;8.20;99.90
56103;DHT22;41970;48.774;9.280;2023-11-18T03:05:09;8.10;99.90
56103;DHT22;41970;48.774;9.280;2023-11-18T03:07:41;8.10;99.90
56103;DHT22;41970;48.774;9.280;2023-11-18T03:10:07;7.80;99.90
56103;DHT22;41970;48.774;9.280;2023-11-18T03:12:42;7.70;99.90
56103;DHT22;41970;48.774;9.280;2023-11-18T03:15:08;7.50;99.90
56103;DHT22;41970;48.774;9.280;2023-11-18T03:17:35;7.50;99.90
56103;DHT22;41970;48.774;9.280;2023-11-18T03:20:00;7.60;99.90
56103;DHT22;41970;48.774;9.280;2023-11-18T03:22:26;7.70;99.90
56103;DHT22;41970;48.774;9.280;2023-11-18T03:24:52;7.80;99.90
56103;DHT22;41970;48.774;9.280;2023-11-18T03:27:17;7.90;99.90
56103;DHT22;41970;48.774;9.280;2023-11-18T03:29:44;7.90;99.90
56103;DHT22;41970;48.774;9.280;2023-11-18T03:32:11;7.90;99.90
56103;DHT22;41970;48.774;9.280;2023-11-18T03:34:38;7.90;99.90
56103;DHT22;41970;48.774;9.280;2023-11-18T03:37:04;8.00;99.90
56103;DHT22;41970;48.774;9.280;2023-11-18T03:39:29;8.10;99.90
56103;DHT22;41970;48.774;9.280;2023-11-18T03:41:56;8.10;99.90
56103;DHT22;41970;48.774;9.280;2023-11-18T03:44:23;8.10;99.90
56103;DHT22;41970;48.774;9.280;2023-11-18T03:46:49;7.90;99.90
56103;DHT22;41970;48.774;9.280;2023-11-18T03:49:15;7.80;99.90
56103;DHT22;41970;48.774;9.280;2023-11-18T03:51:41;7.90;99.90
56103;DHT22;41970;48.774;9.280;2023-11-18T03:54:07;7.90;99.90
56103;DHT22;41970;48.774;9.280;2023-11-18T03:56:35;7.90;99.90
56103;DHT22;41970;48.774;9.280;2023-11-18T03:59:01;8.00;99.90
56103;DHT22;41970;48.774;9.280;2023-11-18T04:01:27;8.00;99.90
56103;DHT22;41970;48.774;9.280;2023-11-18T04:03:53;8.10;99.90
56103;DHT22;41970;48.774;9.280;2023-11-18T04:06:21;8.00;99.90
56103;DHT22;41970;48.774;9.280;2023-11-18T04:08:47;7.90;99.90
56103;DHT22;41970;48.774;9.280;2023-11-18T04:11:14;7.90;99.90
56103;DHT22;41970;48.774;9.280;2023-11-18T04:13:43;7.60;99.90
56103;DHT22;41970;48.774;9.280;2023-11-18T04:16:13;7.50;99.90
56103;DHT22;41970;48.774;9.280;2023-11-18T04:18:40;7.40;99.90
56103;DHT22;41970;48.774;9.280;2023-11-18T04:21:08;7.50;99.90
56103;DHT22;41970;48.774;9.280;2023-11-18T04:23:38;7.70;99.90
56103;DHT22;41970;48.774;9.280;2023-11-18T04:26:04;7.70;99.90
56103;DHT22;41970;48.774;9.280;2023-11-18T04:28:30;7.40;99.90
56103;DHT22;41970;48.774;9.280;2023-11-18T04:30:56;7.30;99.90
56103;DHT22;41970;48.774;9.280;2023-11-18T04:33:22;7.20;99.90
56103;DHT22;41970;48.774;9.280;2023-11-18T04:35:50;7.30;99.90
56103;DHT22;41970;48.774;9.280;2023-11-18T04:38:16;7.40;99.90
56103;DHT22;41970;48.774;9.280;2023-11-18T04:40:42;7.50;99.90
56103;DHT22;41970;48.774;9.280;2023-11-18T04:43:10;7.50;99.90
56103;DHT22;41970;48.774;9.280;2023-11-18T04:45:36;7.40;99.90
56103;DHT22;41970;48.774;9.280;2023-11-18T04:48:03;7.40;99.90
56103;DHT22;41970;48.774;9.280;2023-11-18T04:50:30;7.40;99.90
56103;DHT22;41970;48.774;9.280;2023-11-18T04:52:56;7.30;99.90
56103;DHT22;41970;48.774;9.280;2023-11-18T04:55:22;7.20;99.90
56103;DHT22;41970;48.774;9.280;2023-11-18T04:57:47;7.20;99.90
56103;DHT22;41970;48.774;9.280;2023-11-18T05:00:13;7.20;99.90
56103;DHT22;41970;48.774;9.280;2023-11-18T05:02:42;7.10;99.90
56103;DHT22;41970;48.774;9.280;2023-11-18T05:05:11;7.00;99.90
56103;DHT22;41970;48.774;9.280;2023-11-18T05:07:37;7.10;99.90
56103;DHT22;41970;48.774;9.280;2023-11-18T05:10:04;7.20;99.90
56103;DHT22;41970;48.774;9.280;2023-11-18T05:12:29;7.20;99.90
56103;DHT22;41970;48.774;9.280;2023-11-18T05:14:56;7.10;99.90
56103;DHT22;41970;48.774;9.280;2023-11-18T05:17:23;7.00;99.90
56103;DHT22;41970;48.774;9.280;2023-11-18T05:19:48;7.00;99.90
56103;DHT22;41970;48.774;9.280;2023-11-18T05:22:14;6.70;99.90
56103;DHT22;41970;48.774;9.280;2023-11-18T05:24:41;6.70;99.90
56103;DHT22;41970;48.774;9.280;2023-11-18T05:27:06;6.70;99.90
56103;DHT22;41970;48.774;9.280;2023-11-18T05:29:33;6.80;99.90
56103;DHT22;41970;48.774;9.280;2023-11-18T05:31:59;6.80;99.90
56103;DHT22;41970;48.774;9.280;2023-11-18T05:34:25;6.70;99.90
56103;DHT22;41970;48.774;9.280;2023-11-18T05:36:51;6.80;99.90
56103;DHT22;41970;48.774;9.280;2023-11-18T05:39:20;6.90;99.90
56103;DHT22;41970;48.774;9.280;2023-11-18T05:41:47;7.00;99.90
56103;DHT22;41970;48.774;9.280;2023-11-18T05:44:16;7.10;99.90
56103;DHT22;41970;48.774;9.280;2023-11-18T05:46:48;7.10;99.90
56103;DHT22;41970;48.774;9.280;2023-11-18T05:49:17;7.20;99.90
56103;DHT22;41970;48.774;9.280;2023-11-18T05:51:45;7.30;99.90
56103;DHT22;41970;48.774;9.280;2023-11-18T05:54:10;7.30;99.90
56103;DHT22;41970;48.774;9.280;2023-11-18T05:56:36;7.40;99.90
56103;DHT22;41970;48.774;9.280;2023-11-18T05:59:02;7.30;99.90
56103;DHT22;41970;48.774;9.280;2023-11-18T06:01:29;7.30;99.90
56103;DHT22;41970;48.774;9.280;2023-11-18T06:03:55;7.40;99.90
56103;DHT22;41970;48.774;9.280;2023-11-18T06:06:22;7.30;99.90
56103;DHT22;41970;48.774;9.280;2023-11-18T06:08:48;7.30;99.90
56103;DHT22;41970;48.774;9.280;2023-11-18T06:11:15;7.30;99.90
56103;DHT22;41970;48.774;9.280;2023-11-18T06:13:51;7.30;99.90
56103;DHT22;41970;48.774;9.280;2023-11-18T06:16:22;7.20;99.90
56103;DHT22;41970;48.774;9.280;2023-11-18T06:18:50;7.20;99.90
56103;DHT22;41970;48.774;9.280;2023-11-18T06:21:21;7.10;99.90
56103;DHT22;41970;48.774;9.280;2023-11-18T06:23:53;7.10;99.90
56103;DHT22;41970;48.774;9.280;2023-11-18T06:26:20;7.20;99.90
56103;DHT22;41970;48.774;9.280;2023-11-18T06:28:48;7.20;99.90
56103;DHT22;41970;48.774;9.280;2023-11-18T06:31:17;7.20;99.90
56103;DHT22;41970;48.774;9.280;2023-11-18T06:33:44;7.10;99.90
56103;DHT22;41970;48.774;9.280;2023-11-18T06:36:17;7.10;99.90
56103;DHT22;41970;48.774;9.280;2023-11-18T06:38:43;7.10;99.90
56103;DHT22;41970;48.774;9.280;2023-11-18T06:41:12;7.00;99.90
56103;DHT22;41970;48.774;9.280;2023-11-18T06:43:41;6.90;99.90
56103;DHT22;41970;48.774;9.280;2023-11-18T06:46:22;6.90;99.90
56103;DHT22;41970;48.774;9.280;2023-11-18T06:48:49;6.90;99.90
56103;DHT22;41970;48.774;9.280;2023-11-18T06:51:15;6.90;99.90
56103;DHT22;41970;48.774;9.280;2023-11-18T06:53:42;7.00;99.90
56103;DHT22;41970;48.774;9.280;2023-11-18T06:56:09;7.00;99.90
56103;DHT22;41970;48.774;9.280;2023-11-18T06:58:39;6.80;99.90
56103;DHT22;41970;48.774;9.280;2023-11-18T07:01:06;6.60;99.90
56103;DHT22;41970;48.774;9.280;2023-11-18T07:03:32;6.20;99.90
56103;DHT22;41970;48.774;9.280;2023-11-18T07:05:57;5.90;99.90
56103;DHT22;41970;48.774;9.280;2023-11-18T07:08:23;5.90;99.90
56103;DHT22;41970;48.774;9.280;2023-11-18T07:10:50;5.90;99.90
56103;DHT22;41970;48.774;9.280;2023-11-18T07:13:15;6.00;99.90
56103;DHT22;41970;48.774;9.280;2023-11-18T07:15:42;5.80;99.90
56103;DHT22;41970;48.774;9.280;2023-11-18T07:18:08;5.70;99.90
56103;DHT22;41970;48.774;9.280;2023-11-18T07:20:35;5.80;99.90
56103;DHT22;41970;48.774;9.280;2023-11-18T07:23:00;5.80;99.90
56103;DHT22;41970;48.774;9.280;2023-11-18T07:25:26;5.70;99.90
56103;DHT22;41970;48.774;9.280;2023-11-18T07:27:52;5.80;99.90
56103;DHT22;41970;48.774;9.280;2023-11-18T07:30:18;5.90;99.90
56103;DHT22;41970;48.774;9.280;2023-11-18T07:32:45;6.10;99.90
56103;DHT22;41970;48.774;9.280;2023-11-18T07:35:11;6.20;99.90
56103;DHT22;41970;48.774;9.280;2023-11-18T07:37:37;6.10;99.90
56103;DHT22;41970;48.774;9.280;2023-11-18T07:40:06;6.20;99.90
56103;DHT22;41970;48.774;9.280;2023-11-18T07:42:33;6.40;99.90
56103;DHT22;41970;48.774;9.280;2023-11-18T07:45:06;6.50;99.90
56103;DHT22;41970;48.774;9.280;2023-11-18T07:47:44;6.70;99.90
56103;DHT22;41970;48.774;9.280;2023-11-18T07:50:10;6.90;99.90
56103;DHT22;41970;48.774;9.280;2023-11-18T07:52:39;7.00;99.90
56103;DHT22;41970;48.774;9.280;2023-11-18T07:55:06;7.10;99.90
56103;DHT22;41970;48.774;9.280;2023-11-18T07:57:36;7.20;99.90
56103;DHT22;41970;48.774;9.280;2023-11-18T08:00:02;7.30;99.90
56103;DHT22;41970;48.774;9.280;2023-11-18T08:02:35;7.60;99.90
56103;DHT22;41970;48.774;9.280;2023-11-18T08:05:02;7.80;99.90
56103;DHT22;41970;48.774;9.280;2023-11-18T08:07:28;7.80;99.90
56103;DHT22;41970;48.774;9.280;2023-11-18T08:09:54;7.90;99.90
56103;DHT22;41970;48.774;9.280;2023-11-18T08:12:20;7.70;99.90
56103;DHT22;41970;48.774;9.280;2023-11-18T08:14:46;7.80;99.90
56103;DHT22;41970;48.774;9.280;2023-11-18T08:17:12;7.90;99.90
56103;DHT22;41970;48.774;9.280;2023-11-18T08:19:39;8.10;99.90
56103;DHT22;41970;48.774;9.280;2023-11-18T08:22:04;8.10;99.90
56103;DHT22;41970;48.774;9.280;2023-11-18T08:24:31;8.10;99.90
56103;DHT22;41970;48.774;9.280;2023-11-18T08:26:59;8.20;99.90
56103;DHT22;41970;48.774;9.280;2023-11-18T08:29:24;8.40;99.90
56103;DHT22;41970;48.774;9.280;2023-11-18T08:31:56;8.50;99.90
56103;DHT22;41970;48.774;9.280;2023-11-18T08:34:22;8.50;99.90
56103;DHT22;41970;48.774;9.280;2023-11-18T08:36:51;8.30;99.90
56103;DHT22;41970;48.774;9.280;2023-11-18T08:39:17;8.10;99.90
56103;DHT22;41970;48.774;9.280;2023-11-18T08:41:48;7.90;99.90
56103;DHT22;41970;48.774;9.280;2023-11-18T08:44:16;7.70;99.90
56103;DHT22;41970;48.774;9.280;2023-11-18T08:46:43;7.70;99.90
56103;DHT22;41970;48.774;9.280;2023-11-18T08:49:09;7.70;99.90
56103;DHT22;41970;48.774;9.280;2023-11-18T08:51:38;7.50;99.90
56103;DHT22;41970;48.774;9.280;2023-11-18T08:54:07;7.20;99.90
56103;DHT22;41970;48.774;9.280;2023-11-18T08:56:51;7.00;99.90
56103;DHT22;41970;48.774;9.280;2023-11-18T08:59:21;6.90;99.90
56103;DHT22;41970;48.774;9.280;2023-11-18T09:01:53;6.90;99.90
56103;DHT22;41970;48.774;9.280;2023-11-18T09:04:27;7.10;99.90
56103;DHT22;41970;48.774;9.280;2023-11-18T09:06:53;7.10;99.90
56103;DHT22;41970;48.774;9.280;2023-11-18T09:09:23;7.10;99.90
56103;DHT22;41970;48.774;9.280;2023-11-18T09:11:56;7.10;99.90
56103;DHT22;41970;48.774;9.280;2023-11-18T09:14:25;7.40;99.90
56103;DHT22;41970;48.774;9.280;2023-11-18T09:16:52;7.70;99.90
56103;DHT22;41970;48.774;9.280;2023-11-18T09:19:20;7.80;99.90
56103;DHT22;41970;48.774;9.280;2023-11-18T09:21:47;8.00;99.90
56103;DHT22;41970;48.774;9.280;2023-11-18T09:24:13;8.20;99.90
56103;DHT22;41970;48.774;9.280;2023-11-18T09:26:40;8.40;99.90
56103;DHT22;41970;48.774;9.280;2023-11-18T09:29:06;8.50;99.90
56103;DHT22;41970;48.774;9.280;2023-11-18T09:31:37;8.20;99.90
56103;DHT22;41970;48.774;9.280;2023-11-18T09:34:03;8.30;99.90
56103;DHT22;41970;48.774;9.280;2023-11-18T09:36:32;8.30;99.90
56103;DHT22;41970;48.774;9.280;2023-11-18T09:39:00;8.40;99.90
56103;DHT22;41970;48.774;9.280;2023-11-18T09:41:28;8.50;99.90
56103;DHT22;41970;48.774;9.280;2023-11-18T09:43:55;8.70;99.90
56103;DHT22;41970;48.774;9.280;2023-11-18T09:46:26;8.50;99.90
56103;DHT22;41970;48.774;9.280;2023-11-18T09:49:06;8.50;99.90
56103;DHT22;41970;48.774;9.280;2023-11-18T09:51:41;8.70;99.90
56103;DHT22;41970;48.774;9.280;2023-11-18T09:54:39;8.80;99.90
56103;DHT22;41970;48.774;9.280;2023-11-18T09:57:37;9.00;99.90
56103;DHT22;41970;48.774;9.280;2023-11-18T10:00:06;9.10;99.90
56103;DHT22;41970;48.774;9.280;2023-11-18T10:02:51;8.80;99.90
56103;DHT22;41970;48.774;9.280;2023-11-18T10:05:18;8.70;99.90
56103;DHT22;41970;48.774;9.280;2023-11-18T10:07:48;8.90;99.90
56103;DHT22;41970;48.774;9.280;2023-11-18T10:10:15;8.70;99.90
56103;DHT22;41970;48.774;9.280;2023-11-18T10:12:45;8.70;99.90
56103;DHT22;41970;48.774;9.280;2023-11-18T10:15:15;8.70;99.90
56103;DHT22;41970;48.774;9.280;2023-11-18T10:17:43;8.50;99.90
56103;DHT22;41970;48.774;9.280;2023-11-18T10:23:11;8.30;99.90
56103;DHT22;41970;48.774;9.280;2023-11-18T10:25:50;8.40;99.90
56103;DHT22;41970;48.774;9.280;2023-11-18T10:30:50;8.10;99.90
56103;DHT22;41970;48.774;9.280;2023-11-18T10:33:18;8.00;99.90
56103;DHT22;41970;48.774;9.280;2023-11-18T10:35:52;8.10;99.90
56103;DHT22;41970;48.774;9.280;2023-11-18T10:38:21;8.40;99.90
56103;DHT22;41970;48.774;9.280;2023-11-18T10:40:54;8.50;99.90
56103;DHT22;41970;48.774;9.280;2023-11-18T10:43:23;8.70;99.90
56103;DHT22;41970;48.774;9.280;2023-11-18T10:46:15;8.80;99.90
56103;DHT22;41970;48.774;9.280;2023-11-18T10:48:46;8.70;99.90
56103;DHT22;41970;48.774;9.280;2023-11-18T10:51:18;8.50;99.90
56103;DHT22;41970;48.774;9.280;2023-11-18T10:53:53;8.50;99.90
56103;DHT22;41970;48.774;9.280;2023-11-18T10:56:22;8.50;99.90
56103;DHT22;41970;48.774;9.280;2023-11-18T10:59:12;8.30;99.90
56103;DHT22;41970;48.774;9.280;2023-11-18T11:01:44;8.10;99.90
56103;DHT22;41970;48.774;9.280;2023-11-18T11:04:11;8.00;99.90
56103;DHT22;41970;48.774;9.280;2023-11-18T11:06:44;7.90;99.90
56103;DHT22;41970;48.774;9.280;2023-11-18T11:09:25;7.90;99.90
56103;DHT22;41970;48.774;9.280;2023-11-18T11:11:55;7.80;99.90
56103;DHT22;41970;48.774;9.280;2023-11-18T11:14:23;7.90;99.90
56103;DHT22;41970;48.774;9.280;2023-11-18T11:17:04;7.80;99.90
56103;DHT22;41970;48.774;9.280;2023-11-18T11:19:49;7.70;99.90
56103;DHT22;41970;48.774;9.280;2023-11-18T11:22:24;7.80;99.90
56103;DHT22;41970;48.774;9.280;2023-11-18T11:27:41;8.00;99.90
56103;DHT22;41970;48.774;9.280;2023-11-18T11:30:23;7.90;99.90
56103;DHT22;41970;48.774;9.280;2023-11-18T11:36:02;8.20;99.90
56103;DHT22;41970;48.774;9.280;2023-11-18T11:38:29;8.50;99.90
56103;DHT22;41970;48.774;9.280;2023-11-18T11:40:58;8.70;99.90
56103;DHT22;41970;48.774;9.280;2023-11-18T11:43:27;8.80;99.90
56103;DHT22;41970;48.774;9.280;2023-11-18T11:45:55;8.80;99.90
56103;DHT22;41970;48.774;9.280;2023-11-18T11:48:24;8.90;99.90
56103;DHT22;41970;48.774;9.280;2023-11-18T11:53:36;8.80;99.90
56103;DHT22;41970;48.774;9.280;2023-11-18T11:56:05;8.70;99.90
56103;DHT22;41970;48.774;9.280;2023-11-18T11:58:34;8.70;99.90
56103;DHT22;41970;48.774;9.280;2023-11-18T12:03:43;8.50;99.90
56103;DHT22;41970;48.774;9.280;2023-11-18T12:06:17;8.30;99.90
56103;DHT22;41970;48.774;9.280;2023-11-18T12:08:47;8.30;99.90
56103;DHT22;41970;48.774;9.280;2023-11-18T12:11:17;8.20;99.90
56103;DHT22;41970;48.774;9.280;2023-11-18T12:14:04;8.20;99.90
56103;DHT22;41970;48.774;9.280;2023-11-18T12:22:18;8.10;99.90
56103;DHT22;41970;48.774;9.280;2023-11-18T12:27:41;8.10;99.90
56103;DHT22;41970;48.774;9.280;2023-11-18T12:35:31;8.10;99.90
56103;DHT22;41970;48.774;9.280;2023-11-18T12:41:05;8.20;99.90
56103;DHT22;41970;48.774;9.280;2023-11-18T12:49:14;8.30;99.90
56103;DHT22;41970;48.774;9.280;2023-11-18T12:51:43;8.20;99.90
56103;DHT22;41970;48.774;9.280;2023-11-18T12:54:11;8.20;99.90
56103;DHT22;41970;48.774;9.280;2023-11-18T12:56:41;8.20;99.90
56103;DHT22;41970;48.774;9.280;2023-11-18T12:59:17;8.40;99.90
56103;DHT22;41970;48.774;9.280;2023-11-18T13:01:52;8.60;99.90
56103;DHT22;41970;48.774;9.280;2023-11-18T13:04:25;8.60;99.90
56103;DHT22;41970;48.774;9.280;2023-11-18T13:06:51;8.50;99.90
56103;DHT22;41970;48.774;9.280;2023-11-18T13:09:17;8.60;99.90
56103;DHT22;41970;48.774;9.280;2023-11-18T13:11:57;8.50;99.90
56103;DHT22;41970;48.774;9.280;2023-11-18T13:14:27;8.60;99.90
56103;DHT22;41970;48.774;9.280;2023-11-18T13:16:54;8.50;99.90
56103;DHT22;41970;48.774;9.280;2023-11-18T13:19:26;8.50;99.90
56103;DHT22;41970;48.774;9.280;2023-11-18T13:21:57;8.50;99.90
56103;DHT22;41970;48.774;9.280;2023-11-18T13:24:27;8.40;99.90
56103;DHT22;41970;48.774;9.280;2023-11-18T13:26:57;8.40;99.90
56103;DHT22;41970;48.774;9.280;2023-11-18T13:29:23;8.40;99.90
56103;DHT22;41970;48.774;9.280;2023-11-18T13:31:50;8.50;99.90
56103;DHT22;41970;48.774;9.280;2023-11-18T13:34:19;8.60;99.90
56103;DHT22;41970;48.774;9.280;2023-11-18T13:36:49;8.60;99.90
56103;DHT22;41970;48.774;9.280;2023-11-18T13:39:18;8.60;99.90
56103;DHT22;41970;48.774;9.280;2023-11-18T13:41:48;8.60;99.90
56103;DHT22;41970;48.774;9.280;2023-11-18T13:44:36;8.60;99.90
56103;DHT22;41970;48.774;9.280;2023-11-18T13:47:07;8.70;99.90
56103;DHT22;41970;48.774;9.280;2023-11-18T13:49:40;8.80;99.90
56103;DHT22;41970;48.774;9.280;2023-11-18T13:52:07;8.90;99.90
56103;DHT22;41970;48.774;9.280;2023-11-18T13:54:44;9.00;99.90
56103;DHT22;41970;48.774;9.280;2023-11-18T13:57:11;9.00;99.90
56103;DHT22;41970;48.774;9.280;2023-11-18T13:59:37;9.00;99.90
56103;DHT22;41970;48.774;9.280;2023-11-18T14:02:04;8.90;99.90
56103;DHT22;41970;48.774;9.280;2023-11-18T14:04:31;8.60;99.90
56103;DHT22;41970;48.774;9.280;2023-11-18T14:07:03;8.60;99.90
56103;DHT22;41970;48.774;9.280;2023-11-18T14:09:35;8.70;99.90
56103;DHT22;41970;48.774;9.280;2023-11-18T14:12:11;8.70;99.90
56103;DHT22;41970;48.774;9.280;2023-11-18T14:14:37;8.70;99.90
56103;DHT22;41970;48.774;9.280;2023-11-18T14:17:04;8.70;99.90
56103;DHT22;41970;48.774;9.280;2023-11-18T14:19:31;8.80;99.90
56103;DHT22;41970;48.774;9.280;2023-11-18T14:21:57;8.80;99.90
56103;DHT22;41970;48.774;9.280;2023-11-18T14:24:24;8.80;99.90
56103;DHT22;41970;48.774;9.280;2023-11-18T14:26:56;8.70;99.90
56103;DHT22;41970;48.774;9.280;2023-11-18T14:29:22;8.80;99.90
56103;DHT22;41970;48.774;9.280;2023-11-18T14:31:48;8.70;99.90
56103;DHT22;41970;48.774;9.280;2023-11-18T14:34:14;8.60;99.90
56103;DHT22;41970;48.774;9.280;2023-11-18T14:36:41;8.60;99.90
56103;DHT22;41970;48.774;9.280;2023-11-18T14:39:08;8.50;99.90
56103;DHT22;41970;48.774;9.280;2023-11-18T14:41:36;8.50;99.90
56103;DHT22;41970;48.774;9.280;2023-11-18T14:44:02;8.40;99.90
56103;DHT22;41970;48.774;9.280;2023-11-18T14:46:30;8.30;99.90
56103;DHT22;41970;48.774;9.280;2023-11-18T14:48:59;8.30;99.90
56103;DHT22;41970;48.774;9.280;2023-11-18T14:51:25;8.20;99.90
56103;DHT22;41970;48.774;9.280;2023-11-18T14:53:51;8.20;99.90
56103;DHT22;41970;48.774;9.280;2023-11-18T14:56:17;8.20;99.90
56103;DHT22;41970;48.774;9.280;2023-11-18T14:58:43;8.20;99.90
56103;DHT22;41970;48.774;9.280;2023-11-18T15:01:15;8.20;99.90
56103;DHT22;41970;48.774;9.280;2023-11-18T15:03:40;8.10;99.90
56103;DHT22;41970;48.774;9.280;2023-11-18T15:06:06;8.20;99.90
56103;DHT22;41970;48.774;9.280;2023-11-18T15:08:32;8.20;99.90
56103;DHT22;41970;48.774;9.280;2023-11-18T15:10:58;8.20;99.90
56103;DHT22;41970;48.774;9.280;2023-11-18T15:13:25;8.20;99.90
56103;DHT22;41970;48.774;9.280;2023-11-18T15:15:50;8.20;99.90
56103;DHT22;41970;48.774;9.280;2023-11-18T15:18:17;8.30;99.90
56103;DHT22;41970;48.774;9.280;2023-11-18T15:20:43;8.40;99.90
56103;DHT22;41970;48.774;9.280;2023-11-18T15:23:10;8.50;99.90
56103;DHT22;41970;48.774;9.280;2023-11-18T15:25:36;8.70;99.90
56103;DHT22;41970;48.774;9.280;2023-11-18T15:28:02;8.80;99.90
56103;DHT22;41970;48.774;9.280;2023-11-18T15:30:29;9.00;99.90
56103;DHT22;41970;48.774;9.280;2023-11-18T15:32:55;9.00;99.90
56103;DHT22;41970;48.774;9.280;2023-11-18T15:35:21;9.10;99.90
56103;DHT22;41970;48.774;9.280;2023-11-18T15:37:47;8.90;99.90
56103;DHT22;41970;48.774;9.280;2023-11-18T15:40:15;8.80;99.90
56103;DHT22;41970;48.774;9.280;2023-11-18T15:42:45;8.90;99.90
56103;DHT22;41970;48.774;9.280;2023-11-18T15:45:19;9.00;99.90
56103;DHT22;41970;48.774;9.280;2023-11-18T15:47:46;9.00;99.90
56103;DHT22;41970;48.774;9.280;2023-11-18T15:50:14;9.10;99.90
56103;DHT22;41970;48.774;9.280;2023-11-18T15:52:50;9.10;99.90
56103;DHT22;41970;48.774;9.280;2023-11-18T15:55:19;9.00;99.90
56103;DHT22;41970;48.774;9.280;2023-11-18T15:57:50;9.00;99.90
56103;DHT22;41970;48.774;9.280;2023-11-18T16:00:20;9.00;99.90
56103;DHT22;41970;48.774;9.280;2023-11-18T16:02:49;8.80;99.90
56103;DHT22;41970;48.774;9.280;2023-11-18T16:05:17;8.60;99.90
56103;DHT22;41970;48.774;9.280;2023-11-18T16:07:44;8.50;99.90
56103;DHT22;41970;48.774;9.280;2023-11-18T16:10:11;8.40;99.90
56103;DHT22;41970;48.774;9.280;2023-11-18T16:12:44;8.40;99.90
56103;DHT22;41970;48.774;9.280;2023-11-18T16:15:10;8.40;99.90
56103;DHT22;41970;48.774;9.280;2023-11-18T16:17:36;8.50;99.90
56103;DHT22;41970;48.774;9.280;2023-11-18T16:20:02;8.40;99.90
56103;DHT22;41970;48.774;9.280;2023-11-18T16:22:32;8.20;99.90
56103;DHT22;41970;48.774;9.280;2023-11-18T16:24:59;8.10;99.90
56103;DHT22;41970;48.774;9.280;2023-11-18T16:27:25;8.00;99.90
56103;DHT22;41970;48.774;9.280;2023-11-18T16:29:50;8.00;99.90
56103;DHT22;41970;48.774;9.280;2023-11-18T16:32:16;8.10;99.90